createdAt,value
2023-01-31T00:00:45.196Z,8.70
2023-01-31T00:03:31.552Z,7.77
2023-01-31T00:06:20.586Z,7.03
2023-01-31T00:09:08.863Z,7.83
2023-01-31T00:11:54.977Z,8.57
2023-01-31T00:14:41.330Z,6.67
2023-01-31T00:17:27.635Z,9.07
2023-01-31T00:20:13.888Z,4.90
2023-01-31T00:23:00.140Z,5.60
2023-01-31T00:25:46.611Z,6.27
2023-01-31T00:28:32.865Z,11.23
2023-01-31T00:31:20.345Z,7.77
2023-01-31T00:34:08.715Z,8.63
2023-01-31T00:36:54.988Z,7.40
2023-01-31T00:39:41.469Z,11.00
2023-01-31T00:42:28.273Z,6.40
2023-01-31T00:45:15.273Z,7.60
2023-01-31T00:48:01.873Z,9.53
2023-01-31T00:50:48.399Z,13.80
2023-01-31T00:53:35.943Z,7.23
2023-01-31T00:56:24.229Z,6.73
2023-01-31T00:59:11.338Z,5.13
2023-01-31T01:01:57.616Z,7.00
2023-01-31T01:04:43.843Z,9.10
2023-01-31T01:07:31.831Z,7.60
2023-01-31T01:10:19.828Z,6.33
2023-01-31T01:13:06.360Z,5.30
2023-01-31T01:15:52.753Z,6.57
2023-01-31T01:18:39.607Z,5.27
2023-01-31T01:21:28.511Z,8.63
2023-01-31T01:24:18.036Z,8.30
2023-01-31T01:27:05.085Z,9.57
2023-01-31T01:29:51.253Z,9.27
2023-01-31T01:32:38.026Z,5.67
2023-01-31T01:35:24.443Z,6.27
2023-01-31T01:38:10.784Z,10.37
2023-01-31T01:40:57.347Z,7.03
2023-01-31T01:43:47.357Z,8.13
2023-01-31T01:46:43.742Z,8.00
2023-01-31T01:49:37.175Z,6.37
2023-01-31T01:52:26.219Z,10.67
2023-01-31T01:55:29.217Z,8.17
2023-01-31T01:58:33.949Z,10.17
2023-01-31T02:01:21.095Z,8.37
2023-01-31T02:04:12.158Z,13.07
2023-01-31T02:07:00.328Z,9.43
2023-01-31T02:09:46.860Z,10.17
2023-01-31T02:12:34.455Z,10.07
2023-01-31T02:15:22.226Z,7.93
2023-01-31T02:18:09.599Z,9.90
2023-01-31T02:21:12.149Z,18.73
2023-01-31T02:24:22.762Z,11.90
2023-01-31T02:27:42.121Z,9.40
2023-01-31T02:30:28.918Z,14.50
2023-01-31T02:33:29.978Z,9.37
2023-01-31T02:40:22.207Z,7.60
2023-01-31T02:43:55.239Z,9.93
2023-01-31T02:51:57.678Z,9.20
2023-01-31T02:55:35.151Z,9.53
2023-01-31T02:58:25.079Z,13.80
2023-01-31T03:01:16.338Z,8.03
2023-01-31T03:04:08.514Z,8.73
2023-01-31T03:11:14.789Z,7.73
2023-01-31T03:14:31.846Z,11.57
2023-01-31T03:17:34.800Z,9.67
2023-01-31T03:20:30.190Z,8.00
2023-01-31T03:23:22.652Z,9.50
2023-01-31T03:26:10.125Z,7.20
2023-01-31T03:28:59.686Z,8.97
2023-01-31T03:31:53.411Z,10.37
2023-01-31T03:34:40.529Z,7.77
2023-01-31T03:37:59.884Z,11.43
2023-01-31T03:41:06.006Z,7.67
2023-01-31T03:44:06.531Z,12.00
2023-01-31T03:47:00.484Z,9.30
2023-01-31T03:49:50.413Z,8.03
2023-01-31T03:52:41.170Z,12.57
2023-01-31T03:55:37.385Z,8.17
2023-01-31T03:58:30.433Z,9.17
2023-01-31T04:01:20.363Z,10.53
2023-01-31T04:04:37.130Z,10.17
2023-01-31T04:07:24.093Z,9.63
2023-01-31T04:10:17.743Z,14.47
2023-01-31T04:13:04.083Z,10.80
2023-01-31T04:15:50.574Z,8.90
2023-01-31T04:18:38.626Z,8.00
2023-01-31T04:21:25.069Z,11.60
2023-01-31T04:24:11.834Z,9.60
2023-01-31T04:26:58.357Z,8.70
2023-01-31T04:29:44.811Z,12.23
2023-01-31T04:32:31.260Z,11.00
2023-01-31T04:35:18.112Z,10.73
2023-01-31T04:38:04.601Z,10.37
2023-01-31T04:40:51.155Z,8.17
2023-01-31T04:43:37.461Z,16.67
2023-01-31T04:46:23.875Z,16.17
2023-01-31T04:49:10.303Z,12.30
2023-01-31T04:51:56.783Z,15.77
2023-01-31T04:54:43.230Z,11.03
2023-01-31T04:57:29.501Z,13.43
2023-01-31T05:00:16.081Z,7.30
2023-01-31T05:03:02.457Z,15.73
2023-01-31T05:05:49.750Z,9.90
2023-01-31T05:08:36.524Z,12.50
2023-01-31T05:11:22.960Z,9.13
2023-01-31T05:14:09.652Z,12.47
2023-01-31T05:16:55.755Z,12.03
2023-01-31T05:19:43.775Z,22.17
2023-01-31T05:22:30.309Z,9.57
2023-01-31T05:25:16.869Z,19.53
2023-01-31T05:28:04.605Z,11.73
2023-01-31T05:30:51.008Z,10.87
2023-01-31T05:33:37.621Z,15.73
2023-01-31T05:36:24.063Z,22.17
2023-01-31T05:39:10.382Z,16.53
2023-01-31T05:41:56.865Z,16.30
2023-01-31T05:44:43.091Z,34.63
2023-01-31T05:47:29.525Z,16.50
2023-01-31T05:50:17.170Z,18.67
2023-01-31T05:53:03.783Z,14.63
2023-01-31T05:55:50.192Z,12.97
2023-01-31T05:58:36.730Z,37.57
2023-01-31T06:01:26.355Z,16.07
2023-01-31T06:04:12.716Z,16.07
2023-01-31T06:06:59.173Z,16.80
2023-01-31T06:09:45.351Z,14.50
2023-01-31T06:12:32.003Z,18.23
2023-01-31T06:15:18.830Z,17.30
2023-01-31T06:18:05.505Z,16.70
2023-01-31T06:20:53.081Z,11.53
2023-01-31T06:23:40.314Z,22.27
2023-01-31T06:26:26.514Z,16.57
2023-01-31T06:29:12.962Z,13.70
2023-01-31T06:31:59.228Z,14.43
2023-01-31T06:34:45.753Z,16.97
2023-01-31T06:37:31.985Z,37.03
2023-01-31T06:40:18.319Z,11.63
2023-01-31T06:43:04.826Z,27.80
2023-01-31T06:45:51.361Z,16.87
2023-01-31T06:48:37.801Z,31.57
2023-01-31T06:51:24.211Z,75.00
2023-01-31T06:54:10.674Z,58.80
2023-01-31T06:56:57.125Z,44.03
2023-01-31T06:59:43.661Z,24.37
2023-01-31T07:02:30.376Z,59.27
2023-01-31T07:05:16.777Z,100.83
2023-01-31T07:08:03.421Z,132.73
2023-01-31T07:10:49.879Z,76.97
2023-01-31T07:13:36.079Z,44.57
2023-01-31T07:16:25.375Z,47.37
2023-01-31T07:19:11.913Z,30.57
2023-01-31T07:21:58.467Z,24.80
2023-01-31T07:24:44.918Z,28.93
2023-01-31T07:27:31.270Z,31.80
2023-01-31T07:30:18.524Z,26.33
2023-01-31T07:33:05.587Z,54.20
2023-01-31T07:35:51.955Z,28.77
2023-01-31T07:38:38.620Z,26.60
2023-01-31T07:41:25.332Z,22.63
2023-01-31T07:44:11.844Z,18.17
2023-01-31T07:46:58.192Z,18.40
2023-01-31T07:49:44.280Z,17.70
2023-01-31T07:52:32.062Z,29.03
2023-01-31T07:55:18.908Z,19.40
2023-01-31T07:58:05.307Z,20.30
2023-01-31T08:01:12.303Z,12.47
2023-01-31T08:04:10.678Z,13.23
2023-01-31T08:07:06.896Z,19.40
2023-01-31T08:09:53.627Z,41.07
2023-01-31T08:12:39.890Z,18.07
2023-01-31T08:15:26.415Z,16.60
2023-01-31T08:18:13.010Z,15.50
2023-01-31T08:20:59.783Z,11.13
2023-01-31T08:23:46.949Z,7.47
2023-01-31T08:26:33.398Z,11.47
2023-01-31T08:29:20.162Z,7.97
2023-01-31T08:32:06.792Z,8.77
2023-01-31T08:34:52.964Z,8.63
2023-01-31T08:37:39.286Z,7.43
2023-01-31T08:40:25.752Z,7.00
2023-01-31T08:43:12.316Z,15.63
2023-01-31T08:45:58.925Z,11.27
2023-01-31T08:48:45.207Z,16.63
2023-01-31T08:51:32.436Z,7.93
2023-01-31T08:54:19.094Z,12.13
2023-01-31T08:57:05.396Z,11.17
2023-01-31T08:59:51.642Z,14.93
2023-01-31T09:02:38.019Z,7.53
2023-01-31T09:05:26.948Z,6.77
2023-01-31T09:08:13.504Z,11.60
2023-01-31T09:11:02.559Z,7.23
2023-01-31T09:13:51.703Z,5.60
2023-01-31T09:16:39.020Z,11.77
2023-01-31T09:19:25.488Z,3.80
2023-01-31T09:22:11.920Z,4.73
2023-01-31T09:24:58.028Z,5.90
2023-01-31T09:27:44.355Z,8.23
2023-01-31T09:30:31.008Z,7.23
2023-01-31T09:33:17.129Z,13.80
2023-01-31T09:36:07.021Z,11.33
2023-01-31T09:38:57.341Z,10.00
2023-01-31T09:42:01.238Z,8.07
2023-01-31T09:45:01.730Z,7.00
2023-01-31T09:47:52.324Z,6.60
2023-01-31T09:50:51.874Z,7.50
2023-01-31T09:53:41.104Z,7.93
2023-01-31T09:56:42.606Z,7.47
2023-01-31T09:59:40.366Z,5.60
2023-01-31T10:03:18.249Z,9.53
2023-01-31T10:06:13.767Z,8.23
2023-01-31T10:09:16.075Z,47.27
2023-01-31T10:12:11.607Z,49.87
2023-01-31T10:15:02.919Z,40.53
2023-01-31T10:17:56.983Z,60.10
2023-01-31T10:20:50.235Z,11.13
2023-01-31T10:24:03.423Z,12.63
2023-01-31T10:26:55.005Z,6.70
2023-01-31T10:29:47.670Z,8.70
2023-01-31T10:32:40.116Z,8.17
2023-01-31T10:35:34.362Z,4.53
2023-01-31T10:38:41.879Z,9.17
2023-01-31T10:41:54.528Z,11.03
2023-01-31T10:44:52.655Z,6.23
2023-01-31T10:47:47.480Z,8.73
2023-01-31T10:51:00.672Z,6.87
2023-01-31T10:53:54.177Z,7.80
2023-01-31T10:56:47.233Z,5.47
2023-01-31T10:59:38.341Z,3.10
2023-01-31T11:02:27.582Z,4.90
2023-01-31T11:05:18.796Z,6.97
2023-01-31T11:08:23.527Z,6.87
2023-01-31T11:11:17.013Z,8.53
2023-01-31T11:14:07.046Z,12.93
2023-01-31T11:17:00.540Z,8.73
2023-01-31T11:19:52.886Z,8.33
2023-01-31T11:22:39.944Z,5.53
2023-01-31T11:25:27.318Z,9.93
2023-01-31T11:28:24.314Z,3.50
2023-01-31T11:31:34.516Z,4.30
2023-01-31T11:34:27.211Z,9.20
2023-01-31T11:37:18.346Z,3.73
2023-01-31T11:40:19.715Z,6.67
2023-01-31T11:43:23.929Z,5.50
2023-01-31T11:46:10.588Z,4.57
2023-01-31T11:48:57.801Z,7.33
2023-01-31T11:51:45.176Z,4.80
2023-01-31T11:54:34.154Z,4.93
2023-01-31T11:57:28.733Z,4.60
2023-01-31T12:00:28.107Z,7.07
2023-01-31T12:03:17.771Z,11.83
2023-01-31T12:06:09.369Z,9.03
2023-01-31T12:08:57.694Z,7.50
2023-01-31T12:12:02.595Z,4.70
2023-01-31T12:14:48.853Z,5.67
2023-01-31T12:17:47.694Z,6.10
2023-01-31T12:20:48.800Z,3.90
2023-01-31T12:23:46.479Z,4.13
2023-01-31T12:26:39.016Z,2.43
2023-01-31T12:29:44.216Z,4.03
2023-01-31T12:32:52.093Z,2.37
2023-01-31T12:35:41.648Z,7.00
2023-01-31T12:38:56.639Z,3.03
2023-01-31T12:41:53.156Z,6.37
2023-01-31T12:44:49.988Z,5.63
2023-01-31T12:48:11.999Z,9.70
2023-01-31T12:51:04.609Z,5.97
2023-01-31T12:54:00.501Z,3.77
2023-01-31T12:57:15.911Z,7.17
2023-01-31T13:00:10.880Z,4.13
2023-01-31T13:03:28.490Z,4.47
2023-01-31T13:06:18.460Z,2.83
2023-01-31T13:09:13.353Z,3.27
2023-01-31T13:12:08.817Z,4.73
2023-01-31T13:15:04.227Z,3.47
2023-01-31T13:17:55.080Z,3.07
2023-01-31T13:20:52.291Z,4.33
2023-01-31T13:23:43.982Z,5.37
2023-01-31T13:26:38.160Z,9.43
2023-01-31T13:29:37.022Z,4.57
2023-01-31T13:32:45.206Z,6.97
2023-01-31T13:35:40.865Z,4.87
2023-01-31T13:38:34.931Z,2.70
2023-01-31T13:41:32.529Z,4.50
2023-01-31T13:44:20.844Z,4.27
2023-01-31T13:47:21.262Z,7.90
2023-01-31T13:50:32.871Z,5.40
2023-01-31T13:53:30.687Z,3.00
2023-01-31T13:56:30.411Z,3.73
2023-01-31T13:59:22.904Z,2.93
2023-01-31T14:02:18.470Z,2.57
2023-01-31T14:05:09.218Z,1.77
2023-01-31T14:08:29.881Z,5.13
2023-01-31T14:11:21.911Z,4.50
2023-01-31T14:14:37.270Z,4.43
2023-01-31T14:17:23.576Z,7.63
2023-01-31T14:20:31.231Z,4.73
2023-01-31T14:23:31.338Z,4.23
2023-01-31T14:26:43.139Z,2.53
2023-01-31T14:29:31.761Z,3.60
2023-01-31T14:32:49.934Z,4.10
2023-01-31T14:36:16.574Z,8.00
2023-01-31T14:39:18.657Z,4.33
2023-01-31T14:42:39.002Z,4.30
2023-01-31T14:45:47.110Z,2.10
2023-01-31T14:48:42.314Z,3.07
2023-01-31T14:51:53.032Z,2.40
2023-01-31T14:55:03.419Z,5.43
2023-01-31T14:57:53.493Z,3.30
2023-01-31T15:00:48.841Z,3.67
2023-01-31T15:03:38.752Z,2.67
2023-01-31T15:06:28.807Z,3.50
2023-01-31T15:09:21.530Z,15.07
2023-01-31T15:12:46.599Z,2.80
2023-01-31T15:15:40.251Z,4.23
2023-01-31T15:18:29.162Z,4.83
2023-01-31T15:21:23.177Z,3.93
2023-01-31T15:24:19.532Z,4.40
2023-01-31T15:27:28.750Z,16.17
2023-01-31T15:30:21.256Z,6.40
2023-01-31T15:33:22.218Z,5.07
2023-01-31T15:36:19.729Z,4.37
2023-01-31T15:39:19.696Z,3.50
2023-01-31T15:42:29.345Z,14.93
2023-01-31T15:45:30.347Z,4.53
2023-01-31T15:48:19.226Z,5.97
2023-01-31T15:51:05.718Z,4.67
2023-01-31T15:54:06.299Z,3.73
2023-01-31T15:56:52.483Z,10.93
2023-01-31T15:59:38.922Z,3.47
2023-01-31T16:02:33.431Z,5.17
2023-01-31T16:05:22.274Z,4.33
2023-01-31T16:08:27.002Z,12.13
2023-01-31T16:11:13.667Z,7.83
2023-01-31T16:14:02.810Z,4.03
2023-01-31T16:16:52.551Z,4.63
2023-01-31T16:19:38.884Z,4.33
2023-01-31T16:22:30.180Z,4.27
2023-01-31T16:25:19.002Z,3.67
2023-01-31T16:28:12.111Z,9.13
2023-01-31T16:31:13.777Z,6.63
2023-01-31T16:34:04.573Z,8.17
2023-01-31T16:36:50.831Z,4.03
2023-01-31T16:39:47.199Z,4.47
2023-01-31T16:42:36.222Z,6.07
2023-01-31T16:45:33.449Z,3.13
2023-01-31T16:48:22.165Z,9.63
2023-01-31T16:51:30.275Z,23.63
2023-01-31T16:54:25.589Z,7.20
2023-01-31T16:57:38.392Z,6.87
2023-01-31T17:00:25.460Z,5.90
2023-01-31T17:03:19.555Z,5.10
2023-01-31T17:06:07.122Z,4.37
2023-01-31T17:08:53.733Z,3.77
2023-01-31T17:11:43.328Z,2.63
2023-01-31T17:14:29.972Z,7.40
2023-01-31T17:17:21.923Z,7.23
2023-01-31T17:20:09.669Z,5.90
2023-01-31T17:23:02.644Z,4.63
2023-01-31T17:25:49.827Z,5.30
2023-01-31T17:28:36.087Z,4.73
2023-01-31T17:31:24.808Z,7.33
2023-01-31T17:34:13.772Z,5.40
2023-01-31T17:37:00.040Z,6.23
2023-01-31T17:39:46.534Z,16.70
2023-01-31T17:42:33.074Z,7.03
2023-01-31T17:45:19.891Z,8.27
2023-01-31T17:48:07.818Z,5.53
2023-01-31T17:50:56.032Z,6.30
2023-01-31T17:53:50.014Z,7.40
2023-01-31T17:56:37.259Z,15.73
2023-01-31T17:59:27.299Z,3.57
2023-01-31T18:02:13.785Z,12.23
2023-01-31T18:05:00.277Z,4.50
2023-01-31T18:07:48.995Z,11.20
2023-01-31T18:10:35.526Z,3.93
2023-01-31T18:13:21.806Z,4.53
2023-01-31T18:16:14.674Z,4.97
2023-01-31T18:19:01.046Z,6.67
2023-01-31T18:21:54.947Z,8.80
2023-01-31T18:24:42.332Z,4.83
2023-01-31T18:27:28.575Z,8.03
2023-01-31T18:30:15.159Z,4.57
2023-01-31T18:33:01.306Z,4.10
2023-01-31T18:35:56.482Z,3.97
2023-01-31T18:38:44.644Z,5.27
2023-01-31T18:41:31.056Z,5.13
2023-01-31T18:44:17.339Z,3.17
2023-01-31T18:47:03.726Z,4.33
2023-01-31T18:49:50.066Z,8.80
2023-01-31T18:52:36.656Z,4.53
2023-01-31T18:55:23.245Z,3.57
2023-01-31T18:58:09.785Z,4.10
2023-01-31T19:01:03.083Z,4.27
2023-01-31T19:03:52.829Z,5.53
2023-01-31T19:06:41.045Z,3.50
2023-01-31T19:09:27.516Z,3.40
2023-01-31T19:12:13.706Z,2.50
2023-01-31T19:15:00.190Z,3.57
2023-01-31T19:17:46.640Z,3.53
2023-01-31T19:20:33.129Z,4.30
2023-01-31T19:23:19.668Z,5.07
2023-01-31T19:26:06.153Z,4.77
2023-01-31T19:28:53.359Z,3.13
2023-01-31T19:31:39.865Z,3.30
2023-01-31T19:34:26.561Z,4.27
2023-01-31T19:37:13.277Z,5.37
2023-01-31T19:39:59.947Z,3.13
2023-01-31T19:42:46.504Z,6.00
2023-01-31T19:45:33.000Z,4.13
2023-01-31T19:48:19.930Z,3.13
2023-01-31T19:51:15.381Z,4.67
2023-01-31T19:54:02.773Z,3.77
2023-01-31T19:56:49.335Z,2.40
2023-01-31T19:59:36.170Z,2.80
2023-01-31T20:02:22.637Z,1.83
2023-01-31T20:05:10.672Z,2.37
2023-01-31T20:07:57.265Z,2.60
2023-01-31T20:10:43.551Z,4.17
2023-01-31T20:13:30.159Z,2.33
2023-01-31T20:16:16.874Z,3.83
2023-01-31T20:19:04.253Z,3.07
2023-01-31T20:21:50.690Z,2.90
2023-01-31T20:24:37.068Z,2.03
2023-01-31T20:27:26.456Z,2.63
2023-01-31T20:30:12.864Z,6.03
2023-01-31T20:32:58.955Z,4.87
2023-01-31T20:35:46.301Z,2.00
2023-01-31T20:38:33.097Z,1.93
2023-01-31T20:41:19.814Z,2.33
2023-01-31T20:44:06.290Z,3.10
2023-01-31T20:46:52.958Z,1.97
2023-01-31T20:49:39.152Z,2.80
2023-01-31T20:52:25.608Z,2.10
2023-01-31T20:55:11.873Z,2.30
2023-01-31T20:57:58.463Z,2.07
2023-01-31T21:00:45.136Z,1.80
2023-01-31T21:03:31.826Z,1.47
2023-01-31T21:06:17.983Z,2.00
2023-01-31T21:09:04.656Z,1.57
2023-01-31T21:11:51.087Z,1.87
2023-01-31T21:14:37.940Z,1.10
2023-01-31T21:17:37.829Z,2.10
2023-01-31T21:20:25.559Z,1.63
2023-01-31T21:23:12.068Z,1.33
2023-01-31T21:26:02.936Z,1.97
2023-01-31T21:28:49.581Z,3.77
2023-01-31T21:31:36.265Z,1.47
2023-01-31T21:34:26.954Z,4.13
2023-01-31T21:37:13.493Z,2.53
2023-01-31T21:39:59.798Z,2.10
2023-01-31T21:42:49.604Z,1.77
2023-01-31T21:45:42.312Z,1.23
2023-01-31T21:48:32.021Z,2.47
2023-01-31T21:51:22.093Z,1.87
2023-01-31T21:54:08.800Z,2.53
2023-01-31T21:56:54.935Z,1.50
2023-01-31T21:59:42.739Z,5.03
2023-01-31T22:02:30.710Z,2.10
2023-01-31T22:05:17.119Z,2.03
2023-01-31T22:08:03.367Z,1.60
2023-01-31T22:10:49.663Z,11.37
2023-01-31T22:13:36.654Z,2.60
2023-01-31T22:16:23.066Z,3.37
2023-01-31T22:19:14.024Z,2.13
2023-01-31T22:22:00.251Z,5.67
2023-01-31T22:24:46.402Z,5.17
2023-01-31T22:27:32.887Z,6.67
2023-01-31T22:30:19.387Z,2.63
2023-01-31T22:33:05.612Z,4.73
2023-01-31T22:35:51.777Z,4.27
2023-01-31T22:38:38.753Z,2.13
2023-01-31T22:41:25.054Z,2.10
2023-01-31T22:44:11.389Z,2.60
2023-01-31T22:46:57.672Z,1.87
2023-01-31T22:49:44.327Z,2.23
2023-01-31T22:52:30.717Z,17.53
2023-01-31T22:55:17.342Z,16.27
2023-01-31T22:58:03.770Z,3.57
2023-01-31T23:00:50.414Z,4.23
2023-01-31T23:03:36.658Z,3.90
2023-01-31T23:06:22.851Z,1.60
2023-01-31T23:09:09.096Z,3.20
2023-01-31T23:11:55.283Z,1.80
2023-01-31T23:14:41.707Z,3.03
2023-01-31T23:17:37.424Z,2.27
2023-01-31T23:20:24.114Z,1.77
2023-01-31T23:23:10.780Z,2.23
2023-01-31T23:25:57.251Z,2.83
2023-01-31T23:28:43.723Z,2.20
2023-01-31T23:31:32.233Z,1.93
2023-01-31T23:34:19.007Z,2.97
2023-01-31T23:37:05.157Z,3.63
2023-01-31T23:39:51.803Z,1.50
2023-01-31T23:42:38.503Z,1.93
2023-01-31T23:45:24.983Z,1.83
2023-01-31T23:48:11.628Z,1.40
2023-01-31T23:51:03.285Z,2.43
2023-01-31T23:53:49.775Z,2.43
2023-01-31T23:56:36.644Z,1.73
2023-01-31T23:59:23.074Z,1.23
